createdAt,value
2019-05-11T00:00:56.743Z,12.43
2019-05-11T00:03:25.495Z,12.46
2019-05-11T00:05:54.227Z,12.45
2019-05-11T00:08:22.858Z,12.43
2019-05-11T00:10:51.539Z,12.41
2019-05-11T00:13:20.234Z,12.42
2019-05-11T00:15:48.879Z,12.43
2019-05-11T00:18:17.537Z,12.37
2019-05-11T00:20:46.300Z,12.15
2019-05-11T00:23:22.946Z,11.89
2019-05-11T00:25:51.988Z,11.99
2019-05-11T00:28:20.740Z,11.88
2019-05-11T00:30:49.454Z,11.87
2019-05-11T00:33:18.123Z,11.83
2019-05-11T00:35:46.778Z,11.81
2019-05-11T00:38:15.507Z,11.81
2019-05-11T00:40:44.468Z,11.92
2019-05-11T00:43:13.408Z,11.76
2019-05-11T00:45:42.058Z,11.79
2019-05-11T00:48:10.723Z,11.81
2019-05-11T00:50:40.118Z,11.80
2019-05-11T00:53:09.848Z,11.81
2019-05-11T00:55:38.576Z,11.78
2019-05-11T00:58:07.511Z,11.72
2019-05-11T01:00:36.316Z,11.61
2019-05-11T01:03:04.951Z,11.60
2019-05-11T01:05:33.755Z,11.54
2019-05-11T01:08:02.513Z,11.51
2019-05-11T01:10:41.565Z,11.46
2019-05-11T01:13:01.830Z,11.42
2019-05-11T01:15:30.489Z,11.51
2019-05-11T01:17:59.150Z,11.65
2019-05-11T01:20:27.832Z,11.67
2019-05-11T01:22:56.482Z,11.60
2019-05-11T01:25:25.186Z,11.38
2019-05-11T01:27:53.896Z,11.47
2019-05-11T01:30:22.536Z,11.65
2019-05-11T01:32:51.200Z,11.46
2019-05-11T01:35:19.900Z,11.39
2019-05-11T01:37:48.624Z,11.38
2019-05-11T01:40:17.294Z,11.47
2019-05-11T01:42:45.943Z,11.42
2019-05-11T01:45:14.690Z,11.31
2019-05-11T01:47:43.335Z,11.43
2019-05-11T01:50:12.001Z,11.57
2019-05-11T01:52:40.642Z,11.62
2019-05-11T01:55:09.291Z,11.50
2019-05-11T01:57:37.952Z,11.44
2019-05-11T02:00:06.863Z,11.52
2019-05-11T02:02:35.667Z,11.55
2019-05-11T02:05:22.283Z,11.57
2019-05-11T02:07:51.193Z,11.63
2019-05-11T02:10:19.919Z,11.38
2019-05-11T02:12:48.835Z,11.38
2019-05-11T02:15:18.603Z,11.46
2019-05-11T02:17:47.311Z,11.53
2019-05-11T02:20:15.971Z,11.68
2019-05-11T02:22:44.990Z,11.65
2019-05-11T02:25:13.995Z,11.66
2019-05-11T02:27:42.904Z,11.54
2019-05-11T02:30:11.725Z,11.61
2019-05-11T02:32:40.370Z,11.61
2019-05-11T02:35:10.764Z,11.67
2019-05-11T02:37:40.481Z,11.47
2019-05-11T02:40:09.777Z,11.53
2019-05-11T02:42:38.582Z,11.48
2019-05-11T02:45:07.287Z,11.32
2019-05-11T02:47:35.932Z,11.43
2019-05-11T02:50:04.705Z,11.57
2019-05-11T02:52:33.704Z,11.73
2019-05-11T02:55:03.218Z,11.95
2019-05-11T02:57:32.360Z,12.03
2019-05-11T03:00:01.033Z,12.10
2019-05-11T03:02:30.058Z,12.07
2019-05-11T03:04:58.725Z,12.02
2019-05-11T03:07:27.368Z,11.86
2019-05-11T03:09:56.366Z,11.67
2019-05-11T03:12:25.020Z,11.66
2019-05-11T03:14:53.760Z,11.81
2019-05-11T03:17:27.155Z,11.86
2019-05-11T03:19:55.822Z,11.75
2019-05-11T03:22:24.495Z,11.98
2019-05-11T03:24:53.227Z,11.82
2019-05-11T03:27:21.876Z,11.72
2019-05-11T03:29:50.651Z,11.65
2019-05-11T03:32:19.308Z,11.56
2019-05-11T03:34:48.364Z,11.48
2019-05-11T03:37:17.015Z,11.52
2019-05-11T03:39:45.681Z,11.72
2019-05-11T03:42:15.434Z,11.79
2019-05-11T03:44:44.703Z,11.76
2019-05-11T03:47:13.377Z,11.87
2019-05-11T03:49:42.031Z,11.78
2019-05-11T03:52:10.733Z,11.93
2019-05-11T03:54:39.385Z,11.87
2019-05-11T03:57:08.061Z,12.02
2019-05-11T03:59:36.713Z,12.18
2019-05-11T04:02:05.405Z,12.22
2019-05-11T04:04:34.104Z,12.24
2019-05-11T04:07:02.780Z,12.20
2019-05-11T04:09:32.597Z,12.22
2019-05-11T04:12:01.268Z,12.21
2019-05-11T04:14:29.951Z,12.37
2019-05-11T04:16:58.677Z,12.52
2019-05-11T04:19:27.335Z,12.52
2019-05-11T04:21:56.266Z,12.55
2019-05-11T04:24:24.923Z,12.65
2019-05-11T04:26:53.608Z,12.68
2019-05-11T04:29:22.264Z,12.86
2019-05-11T04:31:51.011Z,12.88
2019-05-11T04:34:19.661Z,12.63
2019-05-11T04:36:48.310Z,12.49
2019-05-11T04:39:17.333Z,12.64
2019-05-11T04:41:45.999Z,12.68
2019-05-11T04:44:14.721Z,12.64
2019-05-11T04:46:43.413Z,12.53
2019-05-11T04:49:12.429Z,12.44
2019-05-11T04:51:41.073Z,12.40
2019-05-11T04:54:09.732Z,12.54
2019-05-11T04:56:38.408Z,12.58
2019-05-11T04:59:07.086Z,12.59
2019-05-11T05:01:35.954Z,12.56
2019-05-11T05:04:14.062Z,12.58
2019-05-11T05:06:35.224Z,12.68
2019-05-11T05:09:05.803Z,12.86
2019-05-11T05:11:36.663Z,13.00
2019-05-11T05:14:08.144Z,12.97
2019-05-11T05:16:35.963Z,12.88
2019-05-11T05:19:04.731Z,12.76
2019-05-11T05:21:33.624Z,12.76
2019-05-11T05:24:02.359Z,12.85
2019-05-11T05:26:31.446Z,12.70
2019-05-11T05:29:00.112Z,12.35
2019-05-11T05:31:28.801Z,12.48
2019-05-11T05:34:01.217Z,12.50
2019-05-11T05:36:27.933Z,12.44
2019-05-11T05:38:56.643Z,12.50
2019-05-11T05:41:25.284Z,12.86
2019-05-11T05:43:54.027Z,12.71
2019-05-11T05:46:22.701Z,12.97
2019-05-11T05:48:51.509Z,13.50
2019-05-11T05:51:20.637Z,13.65
2019-05-11T05:53:49.384Z,13.79
2019-05-11T05:56:18.042Z,13.56
2019-05-11T05:58:46.830Z,13.40
2019-05-11T06:01:15.585Z,13.06
2019-05-11T06:03:44.266Z,12.91
2019-05-11T06:06:13.014Z,12.86
2019-05-11T06:08:43.310Z,12.58
2019-05-11T06:11:12.249Z,12.50
2019-05-11T06:13:45.358Z,12.42
2019-05-11T06:16:11.647Z,12.55
2019-05-11T06:18:40.359Z,12.85
2019-05-11T06:21:09.025Z,13.20
2019-05-11T06:23:38.028Z,13.29
2019-05-11T06:26:07.145Z,13.19
2019-05-11T06:28:35.961Z,13.19
2019-05-11T06:31:04.673Z,12.95
2019-05-11T06:33:33.455Z,12.77
2019-05-11T06:36:02.325Z,12.80
2019-05-11T06:38:31.437Z,12.73
2019-05-11T06:41:00.167Z,12.55
2019-05-11T06:43:28.911Z,12.79
2019-05-11T06:45:58.662Z,12.83
2019-05-11T06:48:27.487Z,13.01
2019-05-11T06:50:56.269Z,13.14
2019-05-11T06:53:25.033Z,13.13
2019-05-11T06:55:53.761Z,13.43
2019-05-11T06:58:23.538Z,13.37
2019-05-11T07:00:52.397Z,13.54
2019-05-11T07:03:21.277Z,13.59
2019-05-11T07:05:50.261Z,13.95
2019-05-11T07:08:19.059Z,14.35
2019-05-11T07:10:47.698Z,14.52
2019-05-11T07:13:16.483Z,14.66
2019-05-11T07:15:45.221Z,14.81
2019-05-11T07:18:13.941Z,14.91
2019-05-11T07:20:50.533Z,15.12
2019-05-11T07:23:13.074Z,15.42
2019-05-11T07:25:41.730Z,16.01
2019-05-11T07:28:10.394Z,16.49
2019-05-11T07:30:40.140Z,16.98
2019-05-11T07:33:08.783Z,16.48
2019-05-11T07:35:38.524Z,16.85
2019-05-11T07:38:08.323Z,17.08
2019-05-11T07:40:38.525Z,17.46
2019-05-11T07:43:09.712Z,17.67
2019-05-11T07:45:38.643Z,18.26
2019-05-11T07:48:08.110Z,18.18
2019-05-11T07:50:38.774Z,17.95
2019-05-11T07:53:08.141Z,18.03
2019-05-11T07:55:38.531Z,17.89
2019-05-11T07:58:08.098Z,17.28
2019-05-11T08:00:39.921Z,17.29
2019-05-11T08:03:08.989Z,17.75
2019-05-11T08:05:38.664Z,18.23
2019-05-11T08:08:08.721Z,17.58
2019-05-11T08:10:39.092Z,17.63
2019-05-11T08:13:09.116Z,18.06
2019-05-11T08:15:38.502Z,18.16
2019-05-11T08:18:08.550Z,18.21
2019-05-11T08:20:38.534Z,18.55
2019-05-11T08:23:09.077Z,18.87
2019-05-11T08:25:38.389Z,19.60
2019-05-11T08:28:11.892Z,19.14
2019-05-11T08:30:38.125Z,18.40
2019-05-11T08:33:08.646Z,17.61
2019-05-11T08:35:38.982Z,17.61
2019-05-11T08:38:08.781Z,18.09
2019-05-11T08:40:37.984Z,17.90
2019-05-11T08:43:08.827Z,18.43
2019-05-11T08:45:39.300Z,18.55
2019-05-11T08:48:09.377Z,18.38
2019-05-11T08:50:38.411Z,17.89
2019-05-11T08:53:08.719Z,18.12
2019-05-11T08:55:38.125Z,18.23
2019-05-11T08:58:07.896Z,18.54
2019-05-11T09:00:38.918Z,18.20
2019-05-11T09:03:08.532Z,17.67
2019-05-11T09:05:38.422Z,17.35
2019-05-11T09:08:08.188Z,17.14
2019-05-11T09:10:39.683Z,17.24
2019-05-11T09:13:08.120Z,18.13
2019-05-11T09:15:40.513Z,18.65
2019-05-11T09:18:08.451Z,19.80
2019-05-11T09:20:37.905Z,20.78
2019-05-11T09:23:08.184Z,20.56
2019-05-11T09:25:38.493Z,21.24
2019-05-11T09:28:08.567Z,21.20
2019-05-11T09:30:38.427Z,21.48
2019-05-11T09:33:08.582Z,21.65
2019-05-11T09:35:47.582Z,21.66
2019-05-11T09:38:09.105Z,21.64
2019-05-11T09:40:38.586Z,21.31
2019-05-11T09:43:08.511Z,21.07
2019-05-11T09:45:47.936Z,20.85
2019-05-11T09:48:08.590Z,21.19
2019-05-11T09:50:38.760Z,20.34
2019-05-11T09:53:08.534Z,20.48
2019-05-11T09:55:38.905Z,20.93
2019-05-11T09:58:08.499Z,21.27
2019-05-11T10:00:38.869Z,21.74
2019-05-11T10:03:08.366Z,22.03
2019-05-11T10:05:38.315Z,22.56
2019-05-11T10:08:07.974Z,22.58
2019-05-11T10:10:38.396Z,21.98
2019-05-11T10:13:08.211Z,21.90
2019-05-11T10:15:38.527Z,21.51
2019-05-11T10:18:08.157Z,22.02
2019-05-11T10:20:39.199Z,22.30
2019-05-11T10:23:08.351Z,21.22
2019-05-11T10:25:39.059Z,20.99
2019-05-11T10:28:08.698Z,21.21
2019-05-11T10:30:38.583Z,21.19
2019-05-11T10:33:08.306Z,21.02
2019-05-11T10:35:37.826Z,22.12
2019-05-11T10:38:09.018Z,21.97
2019-05-11T10:40:38.760Z,22.05
2019-05-11T10:43:08.043Z,21.38
2019-05-11T10:45:37.969Z,20.99
2019-05-11T10:48:08.836Z,20.38
2019-05-11T10:50:38.032Z,19.75
2019-05-11T10:53:07.985Z,18.79
2019-05-11T10:55:38.680Z,18.73
2019-05-11T10:58:08.621Z,18.92
2019-05-11T11:00:38.794Z,18.57
2019-05-11T11:03:08.546Z,17.80
2019-05-11T11:05:38.460Z,17.47
2019-05-11T11:08:08.313Z,17.79
2019-05-11T11:10:37.862Z,17.79
2019-05-11T11:13:08.289Z,17.86
2019-05-11T11:15:38.093Z,17.85
2019-05-11T11:18:08.663Z,17.77
2019-05-11T11:20:38.388Z,17.15
2019-05-11T11:23:08.903Z,16.81
2019-05-11T11:25:37.780Z,16.75
2019-05-11T11:28:08.298Z,16.55
2019-05-11T11:30:37.902Z,16.28
2019-05-11T11:33:07.964Z,16.35
2019-05-11T11:35:38.492Z,16.18
2019-05-11T11:38:08.736Z,16.31
2019-05-11T11:40:38.740Z,16.40
2019-05-11T11:43:08.641Z,16.07
2019-05-11T11:45:38.257Z,16.10
2019-05-11T11:48:08.669Z,16.32
2019-05-11T11:50:37.888Z,16.41
2019-05-11T11:53:08.425Z,16.31
2019-05-11T11:55:39.002Z,16.29
2019-05-11T11:58:09.220Z,16.53
2019-05-11T12:00:39.149Z,17.07
2019-05-11T12:03:09.279Z,17.77
2019-05-11T12:05:38.606Z,18.22
2019-05-11T12:08:08.296Z,18.23
2019-05-11T12:10:38.059Z,18.43
2019-05-11T12:13:08.652Z,17.89
2019-05-11T12:15:38.719Z,18.20
2019-05-11T12:18:08.213Z,17.98
2019-05-11T12:20:38.917Z,17.45
2019-05-11T12:23:08.802Z,17.73
2019-05-11T12:25:40.506Z,17.48
2019-05-11T12:28:08.327Z,17.36
2019-05-11T12:30:37.662Z,17.48
2019-05-11T12:33:08.278Z,18.04
2019-05-11T12:35:37.799Z,18.57
2019-05-11T12:38:07.795Z,20.06
2019-05-11T12:40:38.660Z,19.99
2019-05-11T12:43:08.194Z,20.46
2019-05-11T12:45:37.671Z,20.16
2019-05-11T12:48:08.835Z,19.24
2019-05-11T12:50:37.874Z,18.86
2019-05-11T12:53:08.041Z,19.02
2019-05-11T12:55:37.932Z,18.34
2019-05-11T12:58:08.549Z,17.97
2019-05-11T13:00:39.219Z,17.91
2019-05-11T13:03:08.173Z,17.92
2019-05-11T13:05:37.766Z,18.42
2019-05-11T13:08:07.987Z,18.29
2019-05-11T13:10:37.593Z,18.76
2019-05-11T13:13:08.717Z,18.32
2019-05-11T13:15:38.705Z,18.25
2019-05-11T13:18:08.405Z,18.67
2019-05-11T13:20:37.824Z,18.55
2019-05-11T13:23:07.978Z,18.85
2019-05-11T13:25:38.596Z,19.01
2019-05-11T13:28:08.576Z,18.89
2019-05-11T13:30:38.177Z,18.30
2019-05-11T13:33:08.527Z,18.39
2019-05-11T13:35:37.715Z,18.50
2019-05-11T13:38:08.683Z,18.55
2019-05-11T13:40:39.143Z,18.58
2019-05-11T13:43:08.316Z,18.10
2019-05-11T13:45:38.790Z,18.54
2019-05-11T13:48:08.679Z,18.81
2019-05-11T13:50:38.701Z,18.80
2019-05-11T13:53:07.812Z,18.83
2019-05-11T13:55:38.562Z,18.86
2019-05-11T13:58:08.288Z,18.93
2019-05-11T14:00:38.053Z,18.87
2019-05-11T14:03:08.778Z,18.93
2019-05-11T14:05:37.999Z,18.98
2019-05-11T14:08:08.112Z,19.04
2019-05-11T14:10:38.399Z,19.21
2019-05-11T14:13:08.751Z,19.22
2019-05-11T14:15:37.818Z,19.05
2019-05-11T14:18:09.355Z,19.21
2019-05-11T14:20:37.897Z,18.46
2019-05-11T14:23:07.732Z,18.17
2019-05-11T14:25:38.098Z,18.59
2019-05-11T14:28:08.823Z,19.10
2019-05-11T14:30:38.551Z,19.05
2019-05-11T14:33:08.754Z,18.20
2019-05-11T14:35:38.462Z,17.99
2019-05-11T14:38:08.018Z,18.26
2019-05-11T14:40:38.723Z,18.16
2019-05-11T14:43:08.412Z,18.22
2019-05-11T14:45:38.096Z,17.90
2019-05-11T14:48:22.521Z,17.55
2019-05-11T14:50:38.570Z,17.42
2019-05-11T14:53:08.606Z,17.38
2019-05-11T14:55:38.165Z,17.53
2019-05-11T14:58:08.276Z,17.64
2019-05-11T15:00:39.226Z,17.72
2019-05-11T15:03:07.975Z,17.50
2019-05-11T15:05:37.906Z,17.51
2019-05-11T15:08:08.745Z,17.52
2019-05-11T15:10:38.344Z,17.42
2019-05-11T15:13:08.006Z,17.33
2019-05-11T15:15:39.252Z,17.30
2019-05-11T15:18:08.479Z,17.29
2019-05-11T15:20:38.778Z,16.86
2019-05-11T15:23:08.863Z,16.93
2019-05-11T15:25:38.371Z,17.01
2019-05-11T15:28:08.946Z,16.97
2019-05-11T15:30:38.121Z,16.93
2019-05-11T15:33:07.713Z,16.70
2019-05-11T15:35:37.717Z,16.63
2019-05-11T15:38:08.642Z,16.35
2019-05-11T15:40:38.263Z,14.81
2019-05-11T15:43:08.781Z,13.58
2019-05-11T15:45:38.162Z,13.02
2019-05-11T15:48:08.477Z,12.83
2019-05-11T15:50:39.726Z,12.74
2019-05-11T15:53:08.738Z,12.64
2019-05-11T15:55:39.378Z,12.49
2019-05-11T15:58:07.961Z,12.69
2019-05-11T16:00:39.787Z,12.91
2019-05-11T16:03:08.175Z,12.94
2019-05-11T16:05:37.092Z,13.06
2019-05-11T16:08:08.381Z,13.07
2019-05-11T16:10:38.445Z,13.18
2019-05-11T16:13:08.949Z,13.19
2019-05-11T16:15:38.393Z,13.29
2019-05-11T16:18:08.314Z,13.45
2019-05-11T16:20:37.419Z,13.54
2019-05-11T16:23:06.123Z,13.37
2019-05-11T16:25:34.780Z,13.33
2019-05-11T16:28:03.420Z,13.32
2019-05-11T16:30:32.074Z,13.44
2019-05-11T16:33:00.810Z,13.56
2019-05-11T16:35:29.541Z,13.59
2019-05-11T16:37:59.118Z,13.56
2019-05-11T16:40:29.577Z,13.52
2019-05-11T16:42:58.876Z,13.04
2019-05-11T16:45:28.214Z,13.10
2019-05-11T16:47:58.825Z,13.06
2019-05-11T16:50:28.211Z,12.77
2019-05-11T16:52:58.530Z,12.20
2019-05-11T16:55:27.338Z,12.30
2019-05-11T16:57:58.646Z,12.60
2019-05-11T17:00:26.512Z,12.43
2019-05-11T17:02:57.520Z,12.31
2019-05-11T17:05:27.312Z,12.13
2019-05-11T17:07:55.882Z,12.22
2019-05-11T17:10:24.513Z,12.43
2019-05-11T17:12:53.151Z,12.82
2019-05-11T17:15:21.893Z,12.92
2019-05-11T17:17:50.598Z,12.70
2019-05-11T17:20:19.454Z,12.49
2019-05-11T17:22:48.393Z,12.43
2019-05-11T17:25:19.246Z,12.28
2019-05-11T17:27:48.864Z,11.96
2019-05-11T17:30:19.160Z,11.83
2019-05-11T17:32:49.142Z,11.78
2019-05-11T17:35:18.400Z,11.95
2019-05-11T17:37:48.789Z,12.10
2019-05-11T17:40:20.454Z,12.18
2019-05-11T17:42:48.403Z,12.15
2019-05-11T17:45:19.062Z,12.21
2019-05-11T17:47:47.977Z,12.15
2019-05-11T17:50:19.008Z,11.97
2019-05-11T17:52:47.875Z,12.00
2019-05-11T17:55:18.359Z,11.79
2019-05-11T17:57:49.169Z,11.78
2019-05-11T18:00:20.081Z,11.61
2019-05-11T18:02:49.070Z,11.51
2019-05-11T18:05:18.147Z,11.44
2019-05-11T18:07:47.026Z,11.55
2019-05-11T18:10:18.034Z,11.56
2019-05-11T18:12:48.290Z,11.67
2019-05-11T18:15:18.615Z,11.49
2019-05-11T18:17:48.509Z,11.46
2019-05-11T18:20:21.084Z,11.41
2019-05-11T18:22:49.080Z,11.36
2019-05-11T18:25:18.411Z,11.16
2019-05-11T18:27:48.250Z,10.92
2019-05-11T18:30:17.237Z,11.01
2019-05-11T18:32:48.638Z,11.12
2019-05-11T18:35:19.091Z,11.08
2019-05-11T18:37:47.755Z,11.14
2019-05-11T18:40:18.697Z,11.26
2019-05-11T18:42:48.814Z,11.20
2019-05-11T18:45:18.891Z,11.02
2019-05-11T18:47:49.275Z,10.96
2019-05-11T18:50:29.801Z,10.82
2019-05-11T18:52:49.172Z,10.84
2019-05-11T18:55:18.953Z,10.94
2019-05-11T18:57:48.985Z,11.00
2019-05-11T19:00:18.514Z,10.86
2019-05-11T19:02:49.453Z,11.10
2019-05-11T19:05:21.367Z,10.74
2019-05-11T19:07:50.020Z,10.99
2019-05-11T19:10:19.056Z,10.76
2019-05-11T19:12:48.810Z,10.68
2019-05-11T19:15:18.888Z,10.80
2019-05-11T19:17:49.104Z,10.74
2019-05-11T19:20:18.431Z,10.72
2019-05-11T19:22:47.103Z,10.73
2019-05-11T19:25:17.940Z,10.91
2019-05-11T19:27:50.201Z,10.99
2019-05-11T19:30:18.393Z,11.26
2019-05-11T19:32:48.675Z,11.25
2019-05-11T19:35:20.832Z,11.43
2019-05-11T19:37:48.694Z,11.53
2019-05-11T19:40:17.621Z,11.57
2019-05-11T19:42:55.359Z,11.69
2019-05-11T19:45:24.036Z,11.72
2019-05-11T19:47:52.682Z,11.82
2019-05-11T19:50:21.335Z,11.67
2019-05-11T19:52:49.972Z,11.64
2019-05-11T19:55:18.695Z,11.55
2019-05-11T19:57:48.294Z,11.44
2019-05-11T20:00:18.599Z,11.59
2019-05-11T20:02:47.519Z,11.72
2019-05-11T20:05:18.493Z,11.82
2019-05-11T20:07:48.614Z,11.63
2019-05-11T20:10:18.942Z,11.56
2019-05-11T20:12:48.371Z,11.53
2019-05-11T20:15:18.821Z,11.57
2019-05-11T20:17:48.544Z,11.69
2019-05-11T20:20:18.699Z,11.87
2019-05-11T20:22:48.524Z,11.95
2019-05-11T20:25:18.537Z,11.84
2019-05-11T20:27:48.583Z,11.90
2019-05-11T20:30:18.554Z,11.99
2019-05-11T20:32:48.873Z,12.06
2019-05-11T20:35:17.917Z,12.05
2019-05-11T20:37:46.586Z,12.05
2019-05-11T20:40:15.232Z,12.06
2019-05-11T20:42:43.915Z,12.06
2019-05-11T20:45:12.583Z,12.08
2019-05-11T20:47:41.729Z,12.02
2019-05-11T20:50:10.437Z,12.08
2019-05-11T20:52:39.900Z,12.10
2019-05-11T20:55:09.299Z,11.96
2019-05-11T20:57:39.238Z,11.82
2019-05-11T21:00:08.472Z,11.79
2019-05-11T21:02:38.288Z,11.80
2019-05-11T21:05:09.107Z,11.61
2019-05-11T21:07:38.757Z,11.57
2019-05-11T21:10:08.752Z,11.67
2019-05-11T21:12:39.058Z,11.75
2019-05-11T21:15:08.243Z,11.73
2019-05-11T21:17:37.131Z,11.63
2019-05-11T21:20:06.316Z,11.46
2019-05-11T21:22:34.969Z,11.48
2019-05-11T21:25:03.805Z,11.41
2019-05-11T21:27:32.727Z,11.33
2019-05-11T21:30:01.402Z,11.29
2019-05-11T21:32:30.357Z,11.38
2019-05-11T21:35:01.037Z,11.50
2019-05-11T21:37:29.627Z,11.26
2019-05-11T21:39:58.405Z,11.36
2019-05-11T21:42:28.001Z,11.37
2019-05-11T21:44:58.071Z,11.25
2019-05-11T21:47:28.926Z,11.41
2019-05-11T21:49:57.860Z,11.44
2019-05-11T21:52:28.722Z,11.55
2019-05-11T21:54:58.345Z,11.53
2019-05-11T21:57:27.851Z,11.65
2019-05-11T21:59:57.416Z,11.51
2019-05-11T22:02:28.698Z,11.63
2019-05-11T22:04:58.623Z,11.56
2019-05-11T22:07:27.440Z,11.52
2019-05-11T22:09:59.835Z,11.51
2019-05-11T22:12:27.971Z,11.46
2019-05-11T22:14:57.961Z,11.58
2019-05-11T22:17:27.938Z,11.41
2019-05-11T22:19:58.491Z,11.57
2019-05-11T22:22:28.790Z,11.31
2019-05-11T22:24:58.400Z,11.54
2019-05-11T22:27:27.806Z,11.44
2019-05-11T22:29:58.820Z,11.44
2019-05-11T22:32:28.498Z,11.22
2019-05-11T22:34:58.222Z,11.15
2019-05-11T22:37:27.733Z,11.11
2019-05-11T22:39:57.795Z,11.09
2019-05-11T22:42:28.032Z,11.05
2019-05-11T22:44:56.917Z,11.18
2019-05-11T22:47:25.556Z,11.26
2019-05-11T22:49:54.201Z,11.17
2019-05-11T22:52:35.847Z,11.16
2019-05-11T22:54:53.179Z,11.30
2019-05-11T22:57:22.263Z,11.46
2019-05-11T22:59:50.902Z,11.51
2019-05-11T23:02:19.615Z,11.55
2019-05-11T23:04:48.593Z,11.67
2019-05-11T23:07:18.539Z,11.60
2019-05-11T23:09:47.800Z,11.50
2019-05-11T23:12:17.982Z,11.52
2019-05-11T23:14:48.826Z,11.09
2019-05-11T23:17:18.364Z,11.44
2019-05-11T23:19:48.673Z,11.34
2019-05-11T23:22:18.326Z,11.49
2019-05-11T23:24:48.085Z,11.49
2019-05-11T23:27:18.200Z,11.47
2019-05-11T23:29:47.692Z,11.48
2019-05-11T23:32:17.955Z,11.56
2019-05-11T23:34:48.246Z,11.59
2019-05-11T23:37:18.430Z,11.47
2019-05-11T23:39:48.003Z,11.35
2019-05-11T23:42:16.836Z,11.42
2019-05-11T23:44:46.476Z,11.50
2019-05-11T23:47:19.990Z,11.63
2019-05-11T23:49:47.971Z,11.38
2019-05-11T23:52:18.066Z,11.53
2019-05-11T23:54:48.461Z,11.62
2019-05-11T23:57:18.615Z,11.59
2019-05-11T23:59:47.791Z,11.62
